sensor_id;sensor_type;location;lat;lon;timestamp;pressure;altitude;pressure_sealevel;temperature;humidity
54600;BME280;40500;51.084;16.958;2023-03-01T00:00:40;101778.52;;;-3.84;100.00
54600;BME280;40500;51.084;16.958;2023-03-01T00:03:19;101780.09;;;-3.86;100.00
54600;BME280;40500;51.084;16.958;2023-03-01T00:05:50;101780.35;;;-3.87;100.00
54600;BME280;40500;51.084;16.958;2023-03-01T00:08:24;101777.66;;;-3.89;100.00
54600;BME280;40500;51.084;16.958;2023-03-01T00:11:01;101775.09;;;-3.89;100.00
54600;BME280;40500;51.084;16.958;2023-03-01T00:13:31;101786.36;;;-3.87;100.00
54600;BME280;40500;51.084;16.958;2023-03-01T00:16:03;101783.05;;;-3.88;100.00
54600;BME280;40500;51.084;16.958;2023-03-01T00:18:32;101780.98;;;-3.91;100.00
54600;BME280;40500;51.084;16.958;2023-03-01T00:21:05;101778.43;;;-3.93;100.00
54600;BME280;40500;51.084;16.958;2023-03-01T00:23:47;101777.81;;;-3.95;100.00
54600;BME280;40500;51.084;16.958;2023-03-01T00:26:22;101770.22;;;-3.99;100.00
54600;BME280;40500;51.084;16.958;2023-03-01T00:29:14;101766.73;;;-4.00;100.00
54600;BME280;40500;51.084;16.958;2023-03-01T00:31:49;101761.66;;;-3.99;100.00
54600;BME280;40500;51.084;16.958;2023-03-01T00:34:39;101764.70;;;-3.97;100.00
54600;BME280;40500;51.084;16.958;2023-03-01T00:37:12;101771.37;;;-3.97;100.00
54600;BME280;40500;51.084;16.958;2023-03-01T00:40:33;101767.79;;;-4.02;100.00
54600;BME280;40500;51.084;16.958;2023-03-01T00:43:42;101757.14;;;-4.03;100.00
54600;BME280;40500;51.084;16.958;2023-03-01T00:46:38;101750.84;;;-4.03;100.00
54600;BME280;40500;51.084;16.958;2023-03-01T00:49:12;101742.20;;;-4.01;100.00
54600;BME280;40500;51.084;16.958;2023-03-01T00:52:14;101730.06;;;-4.01;100.00
54600;BME280;40500;51.084;16.958;2023-03-01T00:55:16;101737.00;;;-3.97;100.00
54600;BME280;40500;51.084;16.958;2023-03-01T00:58:24;101733.36;;;-3.98;100.00
54600;BME280;40500;51.084;16.958;2023-03-01T01:01:19;101738.50;;;-4.02;100.00
54600;BME280;40500;51.084;16.958;2023-03-01T01:04:31;101736.52;;;-4.12;100.00
54600;BME280;40500;51.084;16.958;2023-03-01T01:07:21;101737.71;;;-4.20;100.00
54600;BME280;40500;51.084;16.958;2023-03-01T01:09:55;101745.34;;;-4.29;100.00
54600;BME280;40500;51.084;16.958;2023-03-01T01:12:46;101745.73;;;-4.41;100.00
54600;BME280;40500;51.084;16.958;2023-03-01T01:15:35;101737.48;;;-4.47;100.00
54600;BME280;40500;51.084;16.958;2023-03-01T01:18:35;101728.84;;;-4.51;100.00
54600;BME280;40500;51.084;16.958;2023-03-01T01:21:07;101723.71;;;-4.53;100.00
54600;BME280;40500;51.084;16.958;2023-03-01T01:23:41;101731.36;;;-4.54;100.00
54600;BME280;40500;51.084;16.958;2023-03-01T01:26:13;101728.27;;;-4.60;100.00
54600;BME280;40500;51.084;16.958;2023-03-01T01:28:45;101728.84;;;-4.61;100.00
54600;BME280;40500;51.084;16.958;2023-03-01T01:31:17;101729.54;;;-4.63;100.00
54600;BME280;40500;51.084;16.958;2023-03-01T01:34:01;101733.83;;;-4.63;100.00
54600;BME280;40500;51.084;16.958;2023-03-01T01:36:48;101730.85;;;-4.64;100.00
54600;BME280;40500;51.084;16.958;2023-03-01T01:39:21;101718.16;;;-4.65;100.00
54600;BME280;40500;51.084;16.958;2023-03-01T01:41:59;101713.16;;;-4.66;100.00
54600;BME280;40500;51.084;16.958;2023-03-01T01:44:32;101710.02;;;-4.67;100.00
54600;BME280;40500;51.084;16.958;2023-03-01T01:47:05;101707.72;;;-4.68;100.00
54600;BME280;40500;51.084;16.958;2023-03-01T01:49:48;101709.55;;;-4.69;100.00
54600;BME280;40500;51.084;16.958;2023-03-01T01:52:23;101711.80;;;-4.70;100.00
54600;BME280;40500;51.084;16.958;2023-03-01T01:55:29;101697.55;;;-4.74;100.00
54600;BME280;40500;51.084;16.958;2023-03-01T01:58:16;101694.02;;;-4.73;100.00
54600;BME280;40500;51.084;16.958;2023-03-01T02:00:59;101697.99;;;-4.73;100.00
54600;BME280;40500;51.084;16.958;2023-03-01T02:03:47;101702.30;;;-4.75;100.00
54600;BME280;40500;51.084;16.958;2023-03-01T02:06:41;101700.20;;;-4.83;100.00
54600;BME280;40500;51.084;16.958;2023-03-01T02:09:20;101698.48;;;-4.89;100.00
54600;BME280;40500;51.084;16.958;2023-03-01T02:11:58;101698.04;;;-4.95;100.00
54600;BME280;40500;51.084;16.958;2023-03-01T02:14:29;101690.93;;;-4.99;100.00
54600;BME280;40500;51.084;16.958;2023-03-01T02:17:02;101691.98;;;-4.99;100.00
54600;BME280;40500;51.084;16.958;2023-03-01T02:20:02;101695.84;;;-4.95;100.00
54600;BME280;40500;51.084;16.958;2023-03-01T02:22:36;101691.98;;;-4.94;100.00
54600;BME280;40500;51.084;16.958;2023-03-01T02:25:12;101692.98;;;-4.94;100.00
54600;BME280;40500;51.084;16.958;2023-03-01T02:28:18;101690.95;;;-5.02;100.00
54600;BME280;40500;51.084;16.958;2023-03-01T02:31:08;101701.96;;;-5.05;100.00
54600;BME280;40500;51.084;16.958;2023-03-01T02:33:58;101697.29;;;-5.09;100.00
54600;BME280;40500;51.084;16.958;2023-03-01T02:36:30;101694.61;;;-5.08;100.00
54600;BME280;40500;51.084;16.958;2023-03-01T02:39:10;101699.28;;;-5.07;100.00
54600;BME280;40500;51.084;16.958;2023-03-01T02:42:06;101700.35;;;-5.14;100.00
54600;BME280;40500;51.084;16.958;2023-03-01T02:44:44;101698.98;;;-5.19;100.00
54600;BME280;40500;51.084;16.958;2023-03-01T02:47:13;101701.73;;;-5.24;100.00
54600;BME280;40500;51.084;16.958;2023-03-01T02:49:44;101705.70;;;-5.26;100.00
54600;BME280;40500;51.084;16.958;2023-03-01T02:55:03;101709.77;;;-5.26;100.00
54600;BME280;40500;51.084;16.958;2023-03-01T02:57:45;101710.31;;;-5.23;100.00
54600;BME280;40500;51.084;16.958;2023-03-01T03:00:39;101711.46;;;-5.22;100.00
54600;BME280;40500;51.084;16.958;2023-03-01T03:03:16;101707.20;;;-5.21;100.00
54600;BME280;40500;51.084;16.958;2023-03-01T03:06:05;101710.08;;;-5.19;100.00
54600;BME280;40500;51.084;16.958;2023-03-01T03:08:40;101708.85;;;-5.20;100.00
54600;BME280;40500;51.084;16.958;2023-03-01T03:11:09;101706.83;;;-5.20;100.00
54600;BME280;40500;51.084;16.958;2023-03-01T03:13:45;101706.60;;;-5.18;100.00
54600;BME280;40500;51.084;16.958;2023-03-01T03:16:16;101705.64;;;-5.19;100.00
54600;BME280;40500;51.084;16.958;2023-03-01T03:18:48;101707.54;;;-5.21;100.00
54600;BME280;40500;51.084;16.958;2023-03-01T03:21:18;101707.45;;;-5.23;100.00
54600;BME280;40500;51.084;16.958;2023-03-01T03:23:48;101703.98;;;-5.24;100.00
54600;BME280;40500;51.084;16.958;2023-03-01T03:26:17;101699.42;;;-5.25;100.00
54600;BME280;40500;51.084;16.958;2023-03-01T03:28:47;101696.77;;;-5.27;100.00
54600;BME280;40500;51.084;16.958;2023-03-01T03:31:26;101693.83;;;-5.27;100.00
54600;BME280;40500;51.084;16.958;2023-03-01T03:34:19;101692.58;;;-5.28;100.00
54600;BME280;40500;51.084;16.958;2023-03-01T03:36:54;101691.15;;;-5.34;100.00
54600;BME280;40500;51.084;16.958;2023-03-01T03:39:28;101681.59;;;-5.39;100.00
54600;BME280;40500;51.084;16.958;2023-03-01T03:42:03;101674.48;;;-5.40;100.00
54600;BME280;40500;51.084;16.958;2023-03-01T03:44:35;101678.45;;;-5.40;100.00
54600;BME280;40500;51.084;16.958;2023-03-01T03:47:08;101676.20;;;-5.45;100.00
54600;BME280;40500;51.084;16.958;2023-03-01T03:49:51;101679.36;;;-5.46;100.00
54600;BME280;40500;51.084;16.958;2023-03-01T03:52:27;101674.53;;;-5.49;100.00
54600;BME280;40500;51.084;16.958;2023-03-01T03:54:59;101671.52;;;-5.51;100.00
54600;BME280;40500;51.084;16.958;2023-03-01T03:57:42;101674.55;;;-5.49;100.00
54600;BME280;40500;51.084;16.958;2023-03-01T04:00:32;101666.59;;;-5.48;100.00
54600;BME280;40500;51.084;16.958;2023-03-01T04:03:07;101667.66;;;-5.47;100.00
54600;BME280;40500;51.084;16.958;2023-03-01T04:06:03;101664.92;;;-5.48;100.00
54600;BME280;40500;51.084;16.958;2023-03-01T04:08:53;101653.87;;;-5.47;100.00
54600;BME280;40500;51.084;16.958;2023-03-01T04:11:58;101655.91;;;-5.52;100.00
54600;BME280;40500;51.084;16.958;2023-03-01T04:14:29;101651.12;;;-5.60;100.00
54600;BME280;40500;51.084;16.958;2023-03-01T04:17:37;101653.14;;;-5.65;100.00
54600;BME280;40500;51.084;16.958;2023-03-01T04:20:34;101650.18;;;-5.69;100.00
54600;BME280;40500;51.084;16.958;2023-03-01T04:23:08;101648.80;;;-5.66;100.00
54600;BME280;40500;51.084;16.958;2023-03-01T04:25:47;101654.83;;;-5.68;100.00
54600;BME280;40500;51.084;16.958;2023-03-01T04:28:26;101655.91;;;-5.75;100.00
54600;BME280;40500;51.084;16.958;2023-03-01T04:31:01;101653.38;;;-5.77;100.00
54600;BME280;40500;51.084;16.958;2023-03-01T04:33:45;101653.30;;;-5.78;100.00
54600;BME280;40500;51.084;16.958;2023-03-01T04:36:17;101653.48;;;-5.78;100.00
54600;BME280;40500;51.084;16.958;2023-03-01T04:39:08;101656.06;;;-5.75;100.00
54600;BME280;40500;51.084;16.958;2023-03-01T04:41:46;101653.92;;;-5.74;100.00
54600;BME280;40500;51.084;16.958;2023-03-01T04:44:23;101652.71;;;-5.71;100.00
54600;BME280;40500;51.084;16.958;2023-03-01T04:46:54;101647.61;;;-5.71;100.00
54600;BME280;40500;51.084;16.958;2023-03-01T04:49:26;101650.14;;;-5.69;100.00
54600;BME280;40500;51.084;16.958;2023-03-01T04:51:57;101653.70;;;-5.69;100.00
54600;BME280;40500;51.084;16.958;2023-03-01T04:54:31;101658.11;;;-5.70;100.00
54600;BME280;40500;51.084;16.958;2023-03-01T04:57:01;101662.09;;;-5.71;100.00
54600;BME280;40500;51.084;16.958;2023-03-01T04:59:32;101665.48;;;-5.74;100.00
54600;BME280;40500;51.084;16.958;2023-03-01T05:02:03;101663.41;;;-5.77;100.00
54600;BME280;40500;51.084;16.958;2023-03-01T05:04:36;101664.96;;;-5.79;100.00
54600;BME280;40500;51.084;16.958;2023-03-01T05:07:08;101664.95;;;-5.82;100.00
54600;BME280;40500;51.084;16.958;2023-03-01T05:09:49;101662.85;;;-5.85;100.00
54600;BME280;40500;51.084;16.958;2023-03-01T05:12:21;101660.05;;;-5.86;100.00
54600;BME280;40500;51.084;16.958;2023-03-01T05:14:52;101655.93;;;-5.86;100.00
54600;BME280;40500;51.084;16.958;2023-03-01T05:17:22;101654.92;;;-5.86;100.00
54600;BME280;40500;51.084;16.958;2023-03-01T05:19:55;101665.07;;;-5.82;100.00
54600;BME280;40500;51.084;16.958;2023-03-01T05:22:28;101662.39;;;-5.79;100.00
54600;BME280;40500;51.084;16.958;2023-03-01T05:25:20;101657.50;;;-5.79;100.00
54600;BME280;40500;51.084;16.958;2023-03-01T05:27:53;101655.27;;;-5.76;100.00
54600;BME280;40500;51.084;16.958;2023-03-01T05:30:25;101656.17;;;-5.73;100.00
54600;BME280;40500;51.084;16.958;2023-03-01T05:33:02;101661.08;;;-5.74;100.00
54600;BME280;40500;51.084;16.958;2023-03-01T05:35:35;101658.86;;;-5.79;100.00
54600;BME280;40500;51.084;16.958;2023-03-01T05:38:06;101661.90;;;-5.79;100.00
54600;BME280;40500;51.084;16.958;2023-03-01T05:41:12;101659.77;;;-5.85;100.00
54600;BME280;40500;51.084;16.958;2023-03-01T05:44:09;101660.64;;;-5.85;100.00
54600;BME280;40500;51.084;16.958;2023-03-01T05:47:04;101661.95;;;-5.83;100.00
54600;BME280;40500;51.084;16.958;2023-03-01T05:53:51;101664.95;;;-5.75;100.00
54600;BME280;40500;51.084;16.958;2023-03-01T05:57:05;101665.81;;;-5.74;100.00
54600;BME280;40500;51.084;16.958;2023-03-01T05:59:58;101674.29;;;-5.73;100.00
54600;BME280;40500;51.084;16.958;2023-03-01T06:02:39;101671.91;;;-5.73;100.00
54600;BME280;40500;51.084;16.958;2023-03-01T06:05:15;101671.46;;;-5.72;100.00
54600;BME280;40500;51.084;16.958;2023-03-01T06:07:49;101675.39;;;-5.67;100.00
54600;BME280;40500;51.084;16.958;2023-03-01T06:10:33;101671.06;;;-5.65;100.00
54600;BME280;40500;51.084;16.958;2023-03-01T06:13:36;101676.60;;;-5.59;100.00
54600;BME280;40500;51.084;16.958;2023-03-01T06:16:30;101671.11;;;-5.60;100.00
54600;BME280;40500;51.084;16.958;2023-03-01T06:19:01;101675.53;;;-5.55;100.00
54600;BME280;40500;51.084;16.958;2023-03-01T06:21:33;101676.16;;;-5.51;100.00
54600;BME280;40500;51.084;16.958;2023-03-01T06:24:21;101676.91;;;-5.47;100.00
54600;BME280;40500;51.084;16.958;2023-03-01T06:26:59;101677.63;;;-5.42;100.00
54600;BME280;40500;51.084;16.958;2023-03-01T06:29:47;101675.02;;;-5.35;100.00
54600;BME280;40500;51.084;16.958;2023-03-01T06:32:41;101672.89;;;-5.26;100.00
54600;BME280;40500;51.084;16.958;2023-03-01T06:35:31;101667.05;;;-5.17;100.00
54600;BME280;40500;51.084;16.958;2023-03-01T06:38:29;101665.48;;;-5.07;100.00
54600;BME280;40500;51.084;16.958;2023-03-01T06:41:07;101665.21;;;-4.98;100.00
54600;BME280;40500;51.084;16.958;2023-03-01T06:43:44;101667.30;;;-4.90;100.00
54600;BME280;40500;51.084;16.958;2023-03-01T06:46:55;101665.05;;;-4.80;100.00
54600;BME280;40500;51.084;16.958;2023-03-01T06:49:50;101663.85;;;-4.70;100.00
54600;BME280;40500;51.084;16.958;2023-03-01T06:52:22;101657.65;;;-4.60;100.00
54600;BME280;40500;51.084;16.958;2023-03-01T06:55:10;101650.91;;;-4.48;100.00
54600;BME280;40500;51.084;16.958;2023-03-01T06:57:45;101648.91;;;-4.37;100.00
54600;BME280;40500;51.084;16.958;2023-03-01T07:00:35;101648.41;;;-4.25;100.00
54600;BME280;40500;51.084;16.958;2023-03-01T07:03:16;101649.55;;;-4.15;100.00
54600;BME280;40500;51.084;16.958;2023-03-01T07:05:46;101648.80;;;-4.04;100.00
54600;BME280;40500;51.084;16.958;2023-03-01T07:08:18;101647.10;;;-3.92;100.00
54600;BME280;40500;51.084;16.958;2023-03-01T07:11:01;101645.17;;;-3.79;100.00
54600;BME280;40500;51.084;16.958;2023-03-01T07:13:34;101647.63;;;-3.67;100.00
54600;BME280;40500;51.084;16.958;2023-03-01T07:16:12;101648.20;;;-3.55;100.00
54600;BME280;40500;51.084;16.958;2023-03-01T07:22:23;101661.69;;;-3.18;100.00
54600;BME280;40500;51.084;16.958;2023-03-01T07:24:52;101664.29;;;-2.92;100.00
54600;BME280;40500;51.084;16.958;2023-03-01T07:27:21;101664.02;;;-2.46;100.00
54600;BME280;40500;51.084;16.958;2023-03-01T07:29:51;101664.14;;;-2.01;100.00
54600;BME280;40500;51.084;16.958;2023-03-01T07:32:24;101667.38;;;-1.38;100.00
54600;BME280;40500;51.084;16.958;2023-03-01T07:34:53;101664.11;;;-0.95;100.00
54600;BME280;40500;51.084;16.958;2023-03-01T07:37:25;101654.88;;;-0.52;100.00
54600;BME280;40500;51.084;16.958;2023-03-01T07:39:55;101645.77;;;-0.62;100.00
54600;BME280;40500;51.084;16.958;2023-03-01T07:42:25;101643.44;;;-0.78;100.00
54600;BME280;40500;51.084;16.958;2023-03-01T07:44:54;101646.40;;;-0.88;100.00
54600;BME280;40500;51.084;16.958;2023-03-01T07:47:23;101637.51;;;-0.90;100.00
54600;BME280;40500;51.084;16.958;2023-03-01T07:49:52;101640.40;;;-0.91;100.00
54600;BME280;40500;51.084;16.958;2023-03-01T07:52:22;101636.06;;;-0.88;100.00
54600;BME280;40500;51.084;16.958;2023-03-01T07:54:51;101623.65;;;-0.85;100.00
54600;BME280;40500;51.084;16.958;2023-03-01T07:57:20;101620.83;;;-0.84;100.00
54600;BME280;40500;51.084;16.958;2023-03-01T07:59:49;101622.35;;;-0.80;100.00
54600;BME280;40500;51.084;16.958;2023-03-01T08:02:18;101618.48;;;-0.75;100.00
54600;BME280;40500;51.084;16.958;2023-03-01T08:04:47;101611.73;;;-0.66;100.00
54600;BME280;40500;51.084;16.958;2023-03-01T08:07:15;101609.31;;;-0.55;100.00
54600;BME280;40500;51.084;16.958;2023-03-01T08:09:44;101617.98;;;-0.43;100.00
54600;BME280;40500;51.084;16.958;2023-03-01T08:12:13;101614.36;;;-0.32;100.00
54600;BME280;40500;51.084;16.958;2023-03-01T08:14:44;101609.59;;;-0.24;100.00
54600;BME280;40500;51.084;16.958;2023-03-01T08:17:14;101602.31;;;-0.18;100.00
54600;BME280;40500;51.084;16.958;2023-03-01T08:19:43;101596.79;;;-0.14;100.00
54600;BME280;40500;51.084;16.958;2023-03-01T08:22:12;101598.80;;;-0.08;100.00
54600;BME280;40500;51.084;16.958;2023-03-01T08:24:41;101594.64;;;-0.01;100.00
54600;BME280;40500;51.084;16.958;2023-03-01T08:27:11;101593.70;;;0.05;100.00
54600;BME280;40500;51.084;16.958;2023-03-01T08:29:41;101593.35;;;0.12;100.00
54600;BME280;40500;51.084;16.958;2023-03-01T08:32:10;101600.88;;;0.18;100.00
54600;BME280;40500;51.084;16.958;2023-03-01T08:34:39;101596.56;;;0.26;100.00
54600;BME280;40500;51.084;16.958;2023-03-01T08:37:09;101598.34;;;0.31;100.00
54600;BME280;40500;51.084;16.958;2023-03-01T08:39:38;101598.38;;;0.35;100.00
54600;BME280;40500;51.084;16.958;2023-03-01T08:42:08;101602.30;;;0.43;100.00
54600;BME280;40500;51.084;16.958;2023-03-01T08:44:37;101605.74;;;0.51;100.00
54600;BME280;40500;51.084;16.958;2023-03-01T08:47:08;101608.36;;;0.58;100.00
54600;BME280;40500;51.084;16.958;2023-03-01T08:49:37;101605.48;;;0.68;100.00
54600;BME280;40500;51.084;16.958;2023-03-01T08:52:06;101597.84;;;0.74;100.00
54600;BME280;40500;51.084;16.958;2023-03-01T08:54:35;101603.88;;;0.83;100.00
54600;BME280;40500;51.084;16.958;2023-03-01T08:57:04;101605.02;;;0.89;100.00
54600;BME280;40500;51.084;16.958;2023-03-01T08:59:33;101606.20;;;0.96;100.00
54600;BME280;40500;51.084;16.958;2023-03-01T09:02:10;101599.04;;;1.03;100.00
54600;BME280;40500;51.084;16.958;2023-03-01T09:04:40;101600.45;;;1.12;100.00
54600;BME280;40500;51.084;16.958;2023-03-01T09:07:10;101597.73;;;1.17;100.00
54600;BME280;40500;51.084;16.958;2023-03-01T09:09:39;101603.91;;;1.25;100.00
54600;BME280;40500;51.084;16.958;2023-03-01T09:12:08;101603.11;;;1.30;100.00
54600;BME280;40500;51.084;16.958;2023-03-01T09:14:37;101606.46;;;1.35;100.00
54600;BME280;40500;51.084;16.958;2023-03-01T09:17:06;101610.16;;;1.42;100.00
54600;BME280;40500;51.084;16.958;2023-03-01T09:19:35;101601.05;;;1.48;100.00
54600;BME280;40500;51.084;16.958;2023-03-01T09:22:04;101596.13;;;1.53;100.00
54600;BME280;40500;51.084;16.958;2023-03-01T09:24:40;101594.86;;;1.61;100.00
54600;BME280;40500;51.084;16.958;2023-03-01T09:27:12;101587.02;;;1.63;100.00
54600;BME280;40500;51.084;16.958;2023-03-01T09:30:10;101589.88;;;1.70;100.00
54600;BME280;40500;51.084;16.958;2023-03-01T09:32:43;101589.86;;;1.74;100.00
54600;BME280;40500;51.084;16.958;2023-03-01T09:35:12;101587.09;;;1.79;100.00
54600;BME280;40500;51.084;16.958;2023-03-01T09:37:41;101587.55;;;1.82;100.00
54600;BME280;40500;51.084;16.958;2023-03-01T09:40:24;101590.90;;;1.88;100.00
54600;BME280;40500;51.084;16.958;2023-03-01T09:42:58;101584.27;;;1.91;100.00
54600;BME280;40500;51.084;16.958;2023-03-01T09:45:41;101579.11;;;1.95;100.00
54600;BME280;40500;51.084;16.958;2023-03-01T09:48:28;101575.21;;;1.97;100.00
54600;BME280;40500;51.084;16.958;2023-03-01T09:50:59;101573.48;;;2.02;100.00
54600;BME280;40500;51.084;16.958;2023-03-01T09:53:32;101573.84;;;2.07;100.00
54600;BME280;40500;51.084;16.958;2023-03-01T09:56:13;101573.33;;;2.12;100.00
54600;BME280;40500;51.084;16.958;2023-03-01T09:59:02;101579.06;;;2.17;100.00
54600;BME280;40500;51.084;16.958;2023-03-01T10:01:40;101578.36;;;2.22;100.00
54600;BME280;40500;51.084;16.958;2023-03-01T10:04:18;101573.42;;;2.24;100.00
54600;BME280;40500;51.084;16.958;2023-03-01T10:06:51;101567.29;;;2.26;100.00
54600;BME280;40500;51.084;16.958;2023-03-01T10:09:24;101571.14;;;2.28;100.00
54600;BME280;40500;51.084;16.958;2023-03-01T10:11:54;101566.48;;;2.32;100.00
54600;BME280;40500;51.084;16.958;2023-03-01T10:14:29;101565.28;;;2.38;100.00
54600;BME280;40500;51.084;16.958;2023-03-01T10:17:00;101558.17;;;2.42;100.00
54600;BME280;40500;51.084;16.958;2023-03-01T10:19:33;101557.27;;;2.45;100.00
54600;BME280;40500;51.084;16.958;2023-03-01T10:22:04;101557.61;;;2.50;100.00
54600;BME280;40500;51.084;16.958;2023-03-01T10:24:37;101557.23;;;2.54;100.00
54600;BME280;40500;51.084;16.958;2023-03-01T10:27:09;101555.95;;;2.57;100.00
54600;BME280;40500;51.084;16.958;2023-03-01T10:29:44;101546.63;;;2.57;100.00
54600;BME280;40500;51.084;16.958;2023-03-01T10:32:14;101541.36;;;2.60;100.00
54600;BME280;40500;51.084;16.958;2023-03-01T10:34:44;101538.92;;;2.65;100.00
54600;BME280;40500;51.084;16.958;2023-03-01T10:37:14;101538.70;;;2.68;100.00
54600;BME280;40500;51.084;16.958;2023-03-01T10:39:55;101533.24;;;2.71;100.00
54600;BME280;40500;51.084;16.958;2023-03-01T10:42:27;101536.64;;;2.74;100.00
54600;BME280;40500;51.084;16.958;2023-03-01T10:44:58;101535.01;;;2.76;100.00
54600;BME280;40500;51.084;16.958;2023-03-01T10:47:27;101534.52;;;2.77;100.00
54600;BME280;40500;51.084;16.958;2023-03-01T10:49:58;101528.02;;;2.80;100.00
54600;BME280;40500;51.084;16.958;2023-03-01T10:52:30;101520.34;;;2.83;100.00
54600;BME280;40500;51.084;16.958;2023-03-01T10:55:01;101519.29;;;2.88;100.00
54600;BME280;40500;51.084;16.958;2023-03-01T10:57:34;101512.98;;;2.95;100.00
54600;BME280;40500;51.084;16.958;2023-03-01T11:00:20;101511.37;;;3.00;100.00
54600;BME280;40500;51.084;16.958;2023-03-01T11:02:50;101505.17;;;3.06;100.00
54600;BME280;40500;51.084;16.958;2023-03-01T11:05:22;101509.65;;;3.10;100.00
54600;BME280;40500;51.084;16.958;2023-03-01T11:07:54;101506.20;;;3.16;100.00
54600;BME280;40500;51.084;16.958;2023-03-01T11:10:26;101501.89;;;3.22;100.00
54600;BME280;40500;51.084;16.958;2023-03-01T11:13:05;101499.64;;;3.27;100.00
54600;BME280;40500;51.084;16.958;2023-03-01T11:15:34;101494.96;;;3.33;100.00
54600;BME280;40500;51.084;16.958;2023-03-01T11:18:03;101497.70;;;3.38;100.00
54600;BME280;40500;51.084;16.958;2023-03-01T11:20:41;101495.86;;;3.45;100.00
54600;BME280;40500;51.084;16.958;2023-03-01T11:23:10;101492.54;;;3.50;100.00
54600;BME280;40500;51.084;16.958;2023-03-01T11:25:41;101496.54;;;3.56;100.00
54600;BME280;40500;51.084;16.958;2023-03-01T11:28:12;101491.76;;;3.58;100.00
54600;BME280;40500;51.084;16.958;2023-03-01T11:30:44;101490.67;;;3.63;100.00
54600;BME280;40500;51.084;16.958;2023-03-01T11:33:37;101490.54;;;3.70;100.00
54600;BME280;40500;51.084;16.958;2023-03-01T11:36:19;101488.29;;;3.76;100.00
54600;BME280;40500;51.084;16.958;2023-03-01T11:38:55;101488.56;;;3.85;100.00
54600;BME280;40500;51.084;16.958;2023-03-01T11:41:25;101488.31;;;3.95;100.00
54600;BME280;40500;51.084;16.958;2023-03-01T11:43:58;101495.81;;;4.03;100.00
54600;BME280;40500;51.084;16.958;2023-03-01T11:46:42;101493.02;;;4.08;100.00
54600;BME280;40500;51.084;16.958;2023-03-01T11:49:23;101486.26;;;4.14;100.00
54600;BME280;40500;51.084;16.958;2023-03-01T11:51:58;101479.04;;;4.23;100.00
54600;BME280;40500;51.084;16.958;2023-03-01T11:54:38;101474.58;;;4.31;100.00
54600;BME280;40500;51.084;16.958;2023-03-01T11:57:14;101472.67;;;4.37;100.00
54600;BME280;40500;51.084;16.958;2023-03-01T11:59:57;101471.94;;;4.50;100.00
54600;BME280;40500;51.084;16.958;2023-03-01T12:02:42;101465.31;;;4.61;100.00
54600;BME280;40500;51.084;16.958;2023-03-01T12:05:28;101462.77;;;4.70;100.00
54600;BME280;40500;51.084;16.958;2023-03-01T12:08:06;101455.86;;;4.71;100.00
54600;BME280;40500;51.084;16.958;2023-03-01T12:10:41;101457.39;;;4.77;100.00
54600;BME280;40500;51.084;16.958;2023-03-01T12:13:26;101461.21;;;4.85;100.00
54600;BME280;40500;51.084;16.958;2023-03-01T12:16:01;101460.92;;;4.94;100.00
54600;BME280;40500;51.084;16.958;2023-03-01T12:18:41;101453.34;;;5.04;100.00
54600;BME280;40500;51.084;16.958;2023-03-01T12:21:17;101452.42;;;5.17;100.00
54600;BME280;40500;51.084;16.958;2023-03-01T12:23:55;101455.48;;;5.29;100.00
54600;BME280;40500;51.084;16.958;2023-03-01T12:26:28;101451.96;;;5.42;100.00
54600;BME280;40500;51.084;16.958;2023-03-01T12:29:20;101444.13;;;5.50;100.00
54600;BME280;40500;51.084;16.958;2023-03-01T12:34:45;101439.58;;;5.82;100.00
54600;BME280;40500;51.084;16.958;2023-03-01T12:37:23;101438.85;;;5.97;100.00
54600;BME280;40500;51.084;16.958;2023-03-01T12:39:59;101436.15;;;6.09;100.00
54600;BME280;40500;51.084;16.958;2023-03-01T12:42:38;101429.56;;;6.28;100.00
54600;BME280;40500;51.084;16.958;2023-03-01T12:47:55;101416.14;;;6.57;100.00
54600;BME280;40500;51.084;16.958;2023-03-01T12:50:28;101410.71;;;7.68;100.00
54600;BME280;40500;51.084;16.958;2023-03-01T12:53:00;101399.18;;;10.13;100.00
54600;BME280;40500;51.084;16.958;2023-03-01T12:55:31;101397.95;;;12.58;100.00
54600;BME280;40500;51.084;16.958;2023-03-01T12:58:04;101380.45;;;14.45;100.00
54600;BME280;40500;51.084;16.958;2023-03-01T13:00:39;101376.42;;;15.85;98.43
54600;BME280;40500;51.084;16.958;2023-03-01T13:03:15;101368.06;;;17.16;96.88
54600;BME280;40500;51.084;16.958;2023-03-01T13:05:51;101360.80;;;18.40;90.41
54600;BME280;40500;51.084;16.958;2023-03-01T13:08:26;101362.16;;;19.58;85.08
54600;BME280;40500;51.084;16.958;2023-03-01T13:11:00;101364.10;;;20.35;77.10
54600;BME280;40500;51.084;16.958;2023-03-01T13:13:32;101360.92;;;20.85;74.77
54600;BME280;40500;51.084;16.958;2023-03-01T13:18:54;101351.70;;;21.83;72.24
54600;BME280;40500;51.084;16.958;2023-03-01T13:24:33;101347.15;;;22.30;67.76
54600;BME280;40500;51.084;16.958;2023-03-01T13:27:10;101345.02;;;22.68;67.49
54600;BME280;40500;51.084;16.958;2023-03-01T13:29:45;101347.09;;;22.80;65.69
54600;BME280;40500;51.084;16.958;2023-03-01T13:32:20;101341.20;;;23.24;65.67
54600;BME280;40500;51.084;16.958;2023-03-01T13:35:01;101348.92;;;23.76;63.76
54600;BME280;40500;51.084;16.958;2023-03-01T13:37:33;101352.33;;;24.17;65.19
54600;BME280;40500;51.084;16.958;2023-03-01T13:40:04;101348.48;;;24.43;63.58
54600;BME280;40500;51.084;16.958;2023-03-01T13:42:38;101343.08;;;24.10;60.01
54600;BME280;40500;51.084;16.958;2023-03-01T13:45:15;101340.77;;;23.49;54.93
54600;BME280;40500;51.084;16.958;2023-03-01T13:47:45;101343.36;;;22.55;52.86